메인 페이지
METAR-TAF:

METAR-TAF

공항 :

Kendall-Tamiami Executive Airport

마이애미, 플로리다, 미국

위도: 25-38-31N, 경도: 080-26-05W, 고도: 3m

현재 날씨관측

예보는 59분 전, 21:53시(UTC)에 발표되었습니다.
15kt
온도 31°C
습도 49%
기압 1009 hPa
시정: 16.1km
맑음

METAR: KTMB 312153Z 27015KT 10SM CLR 31/19 A2981 RMK AO2 SLP095 T03060194

시각: 18:52 (22:52 UTC)

예보

예보는 1 시간 56분 전, 20:56시(UTC)에 발표되었습니다.
예보 대상 시간: 31일 21시부터 01일 18시까지 (UTC)
남서13kt, 순간 최대 풍속 23kt
시정: 10km
고도 3000ft 상공 구름 보통
고도 25000ft 상공 구름 보통
01일 0000시부터 (UTC)
7kt
시정: 10km
고도 3000ft 상공 구름 보통
고도 25000ft 상공 구름 많음
01일 0800시부터 (UTC)
8kt
시정: 10km
고도 1500ft 상공 구름 보통
고도 2500ft 상공 구름 많음
시계 내 소나기
01일 1500시부터 (UTC)
서북서13kt
시정: 10km
고도 2500ft 상공 구름 보통
고도 25000ft 상공 구름 많음

TAF: KTMB 312056Z 3121/0118 22013G23KT P6SM SCT030 SCT250 FM010000 26007KT P6SM SCT030 BKN250 FM010800 27008KT P6SM VCSH SCT015 BKN025 FM011500 30013KT P6SM SCT025 BKN250

4,000개 이상의 공항 관측 자료 및 예보 (METAR 및 TAF 보고).

지도상에서 검색 가능한 기상관측소가 노란 점과 빨간 점으로 표시되어 있습니다.

기상관측소 명을 보려면 표시 위로 마우스를 이동하세요.

날씨 관측과 예보를 보려면 클릭하세요.

지도 변경 : 확대하려면 엑스 표시가 있는 녹색 버튼, 축소하려면 빼기 표시가 있는 녹색 버튼, 다음 페이지의 지도를 보려면 녹색 화살표를 클릭하세요.


METAR-TAF: